sensor_id;sensor_type;location;lat;lon;timestamp;temperature;humidity
78896;HTU21D;68284;59.124;37.910;2023-05-27T00:01:30;16.67;62.90
78896;HTU21D;68284;59.124;37.910;2023-05-27T00:03:56;17.15;61.73
78896;HTU21D;68284;59.124;37.910;2023-05-27T00:06:23;17.60;60.51
78896;HTU21D;68284;59.124;37.910;2023-05-27T00:08:49;17.94;59.61
78896;HTU21D;68284;59.124;37.910;2023-05-27T00:11:16;18.13;59.08
78896;HTU21D;68284;59.124;37.910;2023-05-27T00:13:43;18.39;58.36
78896;HTU21D;68284;59.124;37.910;2023-05-27T00:16:09;18.67;57.62
78896;HTU21D;68284;59.124;37.910;2023-05-27T00:18:37;18.95;56.90
78896;HTU21D;68284;59.124;37.910;2023-05-27T00:21:04;19.15;56.30
78896;HTU21D;68284;59.124;37.910;2023-05-27T00:23:31;19.31;55.84
78896;HTU21D;68284;59.124;37.910;2023-05-27T00:25:57;19.46;55.35
78896;HTU21D;68284;59.124;37.910;2023-05-27T00:28:24;19.57;54.93
78896;HTU21D;68284;59.124;37.910;2023-05-27T00:30:51;19.61;54.64
78896;HTU21D;68284;59.124;37.910;2023-05-27T00:33:17;19.56;54.58
78896;HTU21D;68284;59.124;37.910;2023-05-27T00:35:43;19.48;54.62
78896;HTU21D;68284;59.124;37.910;2023-05-27T00:38:10;19.40;54.74
78896;HTU21D;68284;59.124;37.910;2023-05-27T00:40:36;19.24;54.93
78896;HTU21D;68284;59.124;37.910;2023-05-27T00:43:05;19.08;55.24
78896;HTU21D;68284;59.124;37.910;2023-05-27T00:45:32;18.89;55.38
78896;HTU21D;68284;59.124;37.910;2023-05-27T00:48:02;18.64;55.81
78896;HTU21D;68284;59.124;37.910;2023-05-27T00:50:29;18.46;55.93
78896;HTU21D;68284;59.124;37.910;2023-05-27T00:52:56;18.24;56.42
78896;HTU21D;68284;59.124;37.910;2023-05-27T00:55:24;18.20;56.46
78896;HTU21D;68284;59.124;37.910;2023-05-27T00:57:51;18.03;56.64
78896;HTU21D;68284;59.124;37.910;2023-05-27T01:00:21;17.88;56.97
78896;HTU21D;68284;59.124;37.910;2023-05-27T01:02:49;17.91;56.95
78896;HTU21D;68284;59.124;37.910;2023-05-27T01:05:19;18.03;56.61
78896;HTU21D;68284;59.124;37.910;2023-05-27T01:10:28;17.88;56.51
78896;HTU21D;68284;59.124;37.910;2023-05-27T01:13:03;17.64;56.90
78896;HTU21D;68284;59.124;37.910;2023-05-27T01:15:33;17.55;56.99
78896;HTU21D;68284;59.124;37.910;2023-05-27T01:18:02;17.41;57.06
78896;HTU21D;68284;59.124;37.910;2023-05-27T01:20:32;17.31;57.29
78896;HTU21D;68284;59.124;37.910;2023-05-27T01:23:00;17.30;57.19
78896;HTU21D;68284;59.124;37.910;2023-05-27T01:25:28;17.31;56.97
78896;HTU21D;68284;59.124;37.910;2023-05-27T01:27:56;17.23;57.04
78896;HTU21D;68284;59.124;37.910;2023-05-27T01:30:22;17.10;57.26
78896;HTU21D;68284;59.124;37.910;2023-05-27T01:32:55;17.00;57.38
78896;HTU21D;68284;59.124;37.910;2023-05-27T01:35:43;16.86;57.43
78896;HTU21D;68284;59.124;37.910;2023-05-27T01:38:16;16.60;57.82
78896;HTU21D;68284;59.124;37.910;2023-05-27T01:40:44;16.32;58.23
78896;HTU21D;68284;59.124;37.910;2023-05-27T01:43:13;16.07;58.86
78896;HTU21D;68284;59.124;37.910;2023-05-27T01:45:42;16.01;59.12
78896;HTU21D;68284;59.124;37.910;2023-05-27T01:48:09;16.03;59.03
78896;HTU21D;68284;59.124;37.910;2023-05-27T01:50:36;16.02;58.80
78896;HTU21D;68284;59.124;37.910;2023-05-27T01:53:02;16.00;58.66
78896;HTU21D;68284;59.124;37.910;2023-05-27T01:55:29;15.91;58.83
78896;HTU21D;68284;59.124;37.910;2023-05-27T01:57:58;15.99;58.53
78896;HTU21D;68284;59.124;37.910;2023-05-27T02:00:24;16.17;57.70
78896;HTU21D;68284;59.124;37.910;2023-05-27T02:02:52;16.31;56.83
78896;HTU21D;68284;59.124;37.910;2023-05-27T02:05:19;16.29;56.43
78896;HTU21D;68284;59.124;37.910;2023-05-27T02:07:45;16.35;56.13
78896;HTU21D;68284;59.124;37.910;2023-05-27T02:10:12;16.41;55.78
78896;HTU21D;68284;59.124;37.910;2023-05-27T02:12:39;16.54;55.25
78896;HTU21D;68284;59.124;37.910;2023-05-27T02:15:06;16.55;54.59
78896;HTU21D;68284;59.124;37.910;2023-05-27T02:17:33;16.49;54.32
78896;HTU21D;68284;59.124;37.910;2023-05-27T02:20:00;16.40;54.25
78896;HTU21D;68284;59.124;37.910;2023-05-27T02:22:27;16.26;54.31
78896;HTU21D;68284;59.124;37.910;2023-05-27T02:24:53;16.11;54.45
78896;HTU21D;68284;59.124;37.910;2023-05-27T02:27:20;16.02;54.47
78896;HTU21D;68284;59.124;37.910;2023-05-27T02:29:46;15.95;54.52
78896;HTU21D;68284;59.124;37.910;2023-05-27T02:32:13;15.93;54.46
78896;HTU21D;68284;59.124;37.910;2023-05-27T02:34:42;15.95;54.20
78896;HTU21D;68284;59.124;37.910;2023-05-27T02:37:10;15.90;54.19
78896;HTU21D;68284;59.124;37.910;2023-05-27T02:39:40;15.93;54.22
78896;HTU21D;68284;59.124;37.910;2023-05-27T02:42:07;15.92;54.33
78896;HTU21D;68284;59.124;37.910;2023-05-27T02:44:34;15.85;54.62
78896;HTU21D;68284;59.124;37.910;2023-05-27T02:47:00;15.99;54.48
78896;HTU21D;68284;59.124;37.910;2023-05-27T02:49:27;16.19;54.16
78896;HTU21D;68284;59.124;37.910;2023-05-27T02:51:54;16.56;53.69
78896;HTU21D;68284;59.124;37.910;2023-05-27T02:54:21;17.00;52.78
78896;HTU21D;68284;59.124;37.910;2023-05-27T02:56:47;17.36;51.94
78896;HTU21D;68284;59.124;37.910;2023-05-27T02:59:15;17.68;51.23
78896;HTU21D;68284;59.124;37.910;2023-05-27T03:01:41;17.93;50.65
78896;HTU21D;68284;59.124;37.910;2023-05-27T03:04:09;18.10;49.92
78896;HTU21D;68284;59.124;37.910;2023-05-27T03:06:35;18.20;49.53
78896;HTU21D;68284;59.124;37.910;2023-05-27T03:09:03;18.28;49.21
78896;HTU21D;68284;59.124;37.910;2023-05-27T03:11:29;18.32;48.95
78896;HTU21D;68284;59.124;37.910;2023-05-27T03:13:57;18.23;48.87
78896;HTU21D;68284;59.124;37.910;2023-05-27T03:16:25;18.20;48.94
78896;HTU21D;68284;59.124;37.910;2023-05-27T03:18:51;18.17;49.03
78896;HTU21D;68284;59.124;37.910;2023-05-27T03:21:18;18.14;49.22
78896;HTU21D;68284;59.124;37.910;2023-05-27T03:23:45;18.04;49.70
78896;HTU21D;68284;59.124;37.910;2023-05-27T03:26:11;17.78;50.56
78896;HTU21D;68284;59.124;37.910;2023-05-27T03:28:38;17.39;51.93
78896;HTU21D;68284;59.124;37.910;2023-05-27T03:31:05;17.09;53.03
78896;HTU21D;68284;59.124;37.910;2023-05-27T03:33:43;17.10;53.30
78896;HTU21D;68284;59.124;37.910;2023-05-27T03:36:10;17.19;53.55
78896;HTU21D;68284;59.124;37.910;2023-05-27T03:38:37;17.23;54.18
78896;HTU21D;68284;59.124;37.910;2023-05-27T03:41:05;17.13;55.09
78896;HTU21D;68284;59.124;37.910;2023-05-27T03:43:32;17.07;55.66
78896;HTU21D;68284;59.124;37.910;2023-05-27T03:45:59;16.77;56.89
78896;HTU21D;68284;59.124;37.910;2023-05-27T03:48:25;16.35;58.06
78896;HTU21D;68284;59.124;37.910;2023-05-27T03:50:51;16.02;59.41
78896;HTU21D;68284;59.124;37.910;2023-05-27T03:53:18;15.85;60.02
78896;HTU21D;68284;59.124;37.910;2023-05-27T03:55:44;15.70;60.89
78896;HTU21D;68284;59.124;37.910;2023-05-27T03:58:10;15.60;61.09
78896;HTU21D;68284;59.124;37.910;2023-05-27T04:00:40;15.49;61.26
78896;HTU21D;68284;59.124;37.910;2023-05-27T04:03:08;15.26;61.82
78896;HTU21D;68284;59.124;37.910;2023-05-27T04:05:35;14.98;62.60
78896;HTU21D;68284;59.124;37.910;2023-05-27T04:08:03;14.81;63.11
78896;HTU21D;68284;59.124;37.910;2023-05-27T04:10:29;14.72;63.29
78896;HTU21D;68284;59.124;37.910;2023-05-27T04:12:56;14.72;63.31
78896;HTU21D;68284;59.124;37.910;2023-05-27T04:15:22;14.67;63.60
78896;HTU21D;68284;59.124;37.910;2023-05-27T04:17:51;14.75;63.60
78896;HTU21D;68284;59.124;37.910;2023-05-27T04:20:17;14.72;64.08
78896;HTU21D;68284;59.124;37.910;2023-05-27T04:22:47;14.58;64.83
78896;HTU21D;68284;59.124;37.910;2023-05-27T04:25:14;14.41;65.81
78896;HTU21D;68284;59.124;37.910;2023-05-27T04:28:05;14.27;66.56
78896;HTU21D;68284;59.124;37.910;2023-05-27T04:30:35;14.12;67.31
78896;HTU21D;68284;59.124;37.910;2023-05-27T04:33:04;14.03;67.72
78896;HTU21D;68284;59.124;37.910;2023-05-27T04:35:30;14.04;67.84
78896;HTU21D;68284;59.124;37.910;2023-05-27T04:37:57;14.25;67.50
78896;HTU21D;68284;59.124;37.910;2023-05-27T04:40:36;14.73;66.46
78896;HTU21D;68284;59.124;37.910;2023-05-27T04:43:26;15.34;64.98
78896;HTU21D;68284;59.124;37.910;2023-05-27T04:45:53;15.59;64.27
78896;HTU21D;68284;59.124;37.910;2023-05-27T04:48:21;15.60;64.24
78896;HTU21D;68284;59.124;37.910;2023-05-27T04:50:54;15.40;64.86
78896;HTU21D;68284;59.124;37.910;2023-05-27T04:53:23;15.18;65.70
78896;HTU21D;68284;59.124;37.910;2023-05-27T04:55:50;15.04;66.27
78896;HTU21D;68284;59.124;37.910;2023-05-27T04:58:19;14.98;66.60
78896;HTU21D;68284;59.124;37.910;2023-05-27T05:00:46;14.93;66.91
78896;HTU21D;68284;59.124;37.910;2023-05-27T05:03:19;14.95;67.01
78896;HTU21D;68284;59.124;37.910;2023-05-27T05:05:52;14.95;67.59
78896;HTU21D;68284;59.124;37.910;2023-05-27T05:08:20;14.94;67.55
78896;HTU21D;68284;59.124;37.910;2023-05-27T05:10:50;15.03;67.46
78896;HTU21D;68284;59.124;37.910;2023-05-27T05:13:18;15.15;67.13
78896;HTU21D;68284;59.124;37.910;2023-05-27T05:15:44;15.33;66.80
78896;HTU21D;68284;59.124;37.910;2023-05-27T05:18:12;15.52;66.33
78896;HTU21D;68284;59.124;37.910;2023-05-27T05:20:42;15.63;66.14
78896;HTU21D;68284;59.124;37.910;2023-05-27T05:23:11;15.75;65.88
78896;HTU21D;68284;59.124;37.910;2023-05-27T05:25:39;15.75;65.69
78896;HTU21D;68284;59.124;37.910;2023-05-27T05:28:07;15.69;65.98
78896;HTU21D;68284;59.124;37.910;2023-05-27T05:30:35;15.65;66.24
78896;HTU21D;68284;59.124;37.910;2023-05-27T05:33:01;15.62;66.51
78896;HTU21D;68284;59.124;37.910;2023-05-27T05:35:31;15.65;66.63
78896;HTU21D;68284;59.124;37.910;2023-05-27T05:38:11;15.69;66.67
78896;HTU21D;68284;59.124;37.910;2023-05-27T05:40:38;15.72;66.86
78896;HTU21D;68284;59.124;37.910;2023-05-27T05:43:16;15.84;66.80
78896;HTU21D;68284;59.124;37.910;2023-05-27T05:45:42;15.96;66.53
78896;HTU21D;68284;59.124;37.910;2023-05-27T05:48:09;16.06;65.95
78896;HTU21D;68284;59.124;37.910;2023-05-27T05:50:40;16.18;65.56
78896;HTU21D;68284;59.124;37.910;2023-05-27T05:53:07;16.27;65.17
78896;HTU21D;68284;59.124;37.910;2023-05-27T05:55:34;16.32;64.95
78896;HTU21D;68284;59.124;37.910;2023-05-27T05:58:00;16.37;64.95
78896;HTU21D;68284;59.124;37.910;2023-05-27T06:00:27;16.42;64.97
78896;HTU21D;68284;59.124;37.910;2023-05-27T06:03:03;16.49;64.87
78896;HTU21D;68284;59.124;37.910;2023-05-27T06:05:42;16.55;64.55
78896;HTU21D;68284;59.124;37.910;2023-05-27T06:08:09;16.61;64.34
78896;HTU21D;68284;59.124;37.910;2023-05-27T06:10:40;16.65;64.37
78896;HTU21D;68284;59.124;37.910;2023-05-27T06:13:06;16.72;64.44
78896;HTU21D;68284;59.124;37.910;2023-05-27T06:15:37;16.76;64.55
78896;HTU21D;68284;59.124;37.910;2023-05-27T06:18:08;16.86;64.38
78896;HTU21D;68284;59.124;37.910;2023-05-27T06:20:34;16.92;64.07
78896;HTU21D;68284;59.124;37.910;2023-05-27T06:23:01;17.01;63.79
78896;HTU21D;68284;59.124;37.910;2023-05-27T06:25:46;17.01;63.62
78896;HTU21D;68284;59.124;37.910;2023-05-27T06:28:12;16.98;63.72
78896;HTU21D;68284;59.124;37.910;2023-05-27T06:30:39;16.94;63.79
78896;HTU21D;68284;59.124;37.910;2023-05-27T06:33:09;16.89;63.98
78896;HTU21D;68284;59.124;37.910;2023-05-27T06:35:36;16.87;63.77
78896;HTU21D;68284;59.124;37.910;2023-05-27T06:38:05;16.85;63.63
78896;HTU21D;68284;59.124;37.910;2023-05-27T06:41:00;16.81;63.56
78896;HTU21D;68284;59.124;37.910;2023-05-27T06:43:35;16.80;63.37
78896;HTU21D;68284;59.124;37.910;2023-05-27T06:46:47;16.78;63.27
78896;HTU21D;68284;59.124;37.910;2023-05-27T06:49:35;16.82;63.30
78896;HTU21D;68284;59.124;37.910;2023-05-27T06:52:04;16.85;63.04
78896;HTU21D;68284;59.124;37.910;2023-05-27T06:54:42;16.85;63.06
78896;HTU21D;68284;59.124;37.910;2023-05-27T06:57:33;16.92;62.92
78896;HTU21D;68284;59.124;37.910;2023-05-27T07:00:11;17.01;62.59
78896;HTU21D;68284;59.124;37.910;2023-05-27T07:02:47;17.04;62.34
78896;HTU21D;68284;59.124;37.910;2023-05-27T07:05:13;17.15;62.24
78896;HTU21D;68284;59.124;37.910;2023-05-27T07:07:40;17.24;61.98
78896;HTU21D;68284;59.124;37.910;2023-05-27T07:10:08;17.28;61.72
78896;HTU21D;68284;59.124;37.910;2023-05-27T07:12:34;17.32;61.02
78896;HTU21D;68284;59.124;37.910;2023-05-27T07:15:19;17.36;60.70
78896;HTU21D;68284;59.124;37.910;2023-05-27T07:17:46;17.44;60.54
78896;HTU21D;68284;59.124;37.910;2023-05-27T07:20:14;17.52;60.24
78896;HTU21D;68284;59.124;37.910;2023-05-27T07:22:48;17.65;59.80
78896;HTU21D;68284;59.124;37.910;2023-05-27T07:25:15;17.76;59.52
78896;HTU21D;68284;59.124;37.910;2023-05-27T07:27:42;17.85;59.36
78896;HTU21D;68284;59.124;37.910;2023-05-27T07:30:09;17.94;59.15
78896;HTU21D;68284;59.124;37.910;2023-05-27T07:32:46;18.04;58.70
78896;HTU21D;68284;59.124;37.910;2023-05-27T07:35:13;18.14;58.42
78896;HTU21D;68284;59.124;37.910;2023-05-27T07:37:39;18.24;57.76
78896;HTU21D;68284;59.124;37.910;2023-05-27T07:40:07;18.37;57.43
78896;HTU21D;68284;59.124;37.910;2023-05-27T07:42:37;18.53;57.05
78896;HTU21D;68284;59.124;37.910;2023-05-27T07:45:05;18.69;56.16
78896;HTU21D;68284;59.124;37.910;2023-05-27T07:47:32;18.77;55.42
78896;HTU21D;68284;59.124;37.910;2023-05-27T07:49:59;18.89;54.78
78896;HTU21D;68284;59.124;37.910;2023-05-27T07:52:40;19.05;54.31
78896;HTU21D;68284;59.124;37.910;2023-05-27T07:55:24;19.16;53.56
78896;HTU21D;68284;59.124;37.910;2023-05-27T07:57:54;19.21;52.72
78896;HTU21D;68284;59.124;37.910;2023-05-27T08:00:21;19.25;52.22
78896;HTU21D;68284;59.124;37.910;2023-05-27T08:02:54;19.32;51.53
78896;HTU21D;68284;59.124;37.910;2023-05-27T08:05:29;19.40;51.18
78896;HTU21D;68284;59.124;37.910;2023-05-27T08:08:09;19.52;50.78
78896;HTU21D;68284;59.124;37.910;2023-05-27T08:10:56;19.55;50.34
78896;HTU21D;68284;59.124;37.910;2023-05-27T08:13:44;19.61;49.57
78896;HTU21D;68284;59.124;37.910;2023-05-27T08:16:31;19.67;49.36
78896;HTU21D;68284;59.124;37.910;2023-05-27T08:19:06;19.75;49.01
78896;HTU21D;68284;59.124;37.910;2023-05-27T08:21:49;19.85;48.17
78896;HTU21D;68284;59.124;37.910;2023-05-27T08:24:39;19.98;46.93
78896;HTU21D;68284;59.124;37.910;2023-05-27T08:27:49;20.12;46.04
78896;HTU21D;68284;59.124;37.910;2023-05-27T08:30:27;20.20;46.19
78896;HTU21D;68284;59.124;37.910;2023-05-27T08:33:07;20.32;45.74
78896;HTU21D;68284;59.124;37.910;2023-05-27T08:35:34;20.47;45.14
78896;HTU21D;68284;59.124;37.910;2023-05-27T08:38:02;20.60;44.43
78896;HTU21D;68284;59.124;37.910;2023-05-27T08:40:33;20.73;44.09
78896;HTU21D;68284;59.124;37.910;2023-05-27T08:43:00;20.80;43.74
78896;HTU21D;68284;59.124;37.910;2023-05-27T08:45:27;20.86;43.41
78896;HTU21D;68284;59.124;37.910;2023-05-27T08:47:53;20.85;42.37
78896;HTU21D;68284;59.124;37.910;2023-05-27T08:50:28;20.83;42.11
78896;HTU21D;68284;59.124;37.910;2023-05-27T08:52:55;20.84;41.68
78896;HTU21D;68284;59.124;37.910;2023-05-27T08:55:27;20.87;41.28
78896;HTU21D;68284;59.124;37.910;2023-05-27T08:57:57;20.94;41.28
78896;HTU21D;68284;59.124;37.910;2023-05-27T09:00:27;21.02;41.10
78896;HTU21D;68284;59.124;37.910;2023-05-27T09:02:58;21.08;40.36
78896;HTU21D;68284;59.124;37.910;2023-05-27T09:05:32;21.14;40.20
78896;HTU21D;68284;59.124;37.910;2023-05-27T09:07:58;21.18;40.33
78896;HTU21D;68284;59.124;37.910;2023-05-27T09:10:39;21.22;40.82
78896;HTU21D;68284;59.124;37.910;2023-05-27T09:13:08;21.20;41.57
78896;HTU21D;68284;59.124;37.910;2023-05-27T09:15:36;21.29;41.76
78896;HTU21D;68284;59.124;37.910;2023-05-27T09:18:04;21.42;41.04
78896;HTU21D;68284;59.124;37.910;2023-05-27T09:20:31;21.57;39.88
78896;HTU21D;68284;59.124;37.910;2023-05-27T09:23:04;21.70;39.06
78896;HTU21D;68284;59.124;37.910;2023-05-27T09:25:30;21.80;37.87
78896;HTU21D;68284;59.124;37.910;2023-05-27T09:27:58;21.84;37.09
78896;HTU21D;68284;59.124;37.910;2023-05-27T09:30:25;21.91;36.58
78896;HTU21D;68284;59.124;37.910;2023-05-27T09:33:00;21.99;36.17
78896;HTU21D;68284;59.124;37.910;2023-05-27T09:35:28;22.11;35.95
78896;HTU21D;68284;59.124;37.910;2023-05-27T09:38:05;22.22;35.93
78896;HTU21D;68284;59.124;37.910;2023-05-27T09:40:31;22.27;35.65
78896;HTU21D;68284;59.124;37.910;2023-05-27T09:42:58;22.28;35.11
78896;HTU21D;68284;59.124;37.910;2023-05-27T09:45:25;22.27;35.69
78896;HTU21D;68284;59.124;37.910;2023-05-27T09:47:54;22.36;35.26
78896;HTU21D;68284;59.124;37.910;2023-05-27T09:50:23;22.52;34.77
78896;HTU21D;68284;59.124;37.910;2023-05-27T09:52:53;22.64;34.88
78896;HTU21D;68284;59.124;37.910;2023-05-27T09:55:21;22.73;34.27
78896;HTU21D;68284;59.124;37.910;2023-05-27T09:57:50;22.75;33.87
78896;HTU21D;68284;59.124;37.910;2023-05-27T10:00:21;22.71;33.79
78896;HTU21D;68284;59.124;37.910;2023-05-27T10:02:48;22.66;33.96
78896;HTU21D;68284;59.124;37.910;2023-05-27T10:05:16;22.63;34.03
78896;HTU21D;68284;59.124;37.910;2023-05-27T10:07:44;22.55;34.17
78896;HTU21D;68284;59.124;37.910;2023-05-27T10:10:17;22.50;34.59
78896;HTU21D;68284;59.124;37.910;2023-05-27T10:12:46;22.43;34.85
78896;HTU21D;68284;59.124;37.910;2023-05-27T10:15:29;22.34;35.05
78896;HTU21D;68284;59.124;37.910;2023-05-27T10:20:53;22.27;34.89
78896;HTU21D;68284;59.124;37.910;2023-05-27T10:25:51;22.38;34.39
78896;HTU21D;68284;59.124;37.910;2023-05-27T10:28:25;22.41;34.58
78896;HTU21D;68284;59.124;37.910;2023-05-27T10:31:02;22.46;34.77
78896;HTU21D;68284;59.124;37.910;2023-05-27T10:33:35;22.50;35.01
78896;HTU21D;68284;59.124;37.910;2023-05-27T10:36:09;22.52;34.81
78896;HTU21D;68284;59.124;37.910;2023-05-27T10:38:37;22.55;34.44
78896;HTU21D;68284;59.124;37.910;2023-05-27T10:41:05;22.56;33.22
78896;HTU21D;68284;59.124;37.910;2023-05-27T10:43:35;22.51;32.80
78896;HTU21D;68284;59.124;37.910;2023-05-27T10:46:09;22.44;32.50
78896;HTU21D;68284;59.124;37.910;2023-05-27T10:48:37;22.39;32.64
78896;HTU21D;68284;59.124;37.910;2023-05-27T10:51:06;22.39;32.50
78896;HTU21D;68284;59.124;37.910;2023-05-27T10:53:34;22.53;32.38
78896;HTU21D;68284;59.124;37.910;2023-05-27T10:56:02;22.72;32.44
78896;HTU21D;68284;59.124;37.910;2023-05-27T10:58:33;22.86;31.95
78896;HTU21D;68284;59.124;37.910;2023-05-27T11:01:01;22.92;31.43
78896;HTU21D;68284;59.124;37.910;2023-05-27T11:03:29;22.98;31.43
78896;HTU21D;68284;59.124;37.910;2023-05-27T11:06:06;23.02;30.87
78896;HTU21D;68284;59.124;37.910;2023-05-27T11:08:33;23.15;31.41
78896;HTU21D;68284;59.124;37.910;2023-05-27T11:11:07;23.27;30.39
78896;HTU21D;68284;59.124;37.910;2023-05-27T11:13:43;23.27;30.55
78896;HTU21D;68284;59.124;37.910;2023-05-27T11:16:12;23.37;31.28
78896;HTU21D;68284;59.124;37.910;2023-05-27T11:18:46;23.37;30.38
78896;HTU21D;68284;59.124;37.910;2023-05-27T11:21:15;23.26;30.84
78896;HTU21D;68284;59.124;37.910;2023-05-27T11:23:47;23.11;30.87
78896;HTU21D;68284;59.124;37.910;2023-05-27T11:26:20;22.94;30.02
78896;HTU21D;68284;59.124;37.910;2023-05-27T11:28:57;22.73;30.66
78896;HTU21D;68284;59.124;37.910;2023-05-27T11:31:28;22.60;30.56
78896;HTU21D;68284;59.124;37.910;2023-05-27T11:33:55;22.50;31.03
78896;HTU21D;68284;59.124;37.910;2023-05-27T11:36:25;22.50;30.32
78896;HTU21D;68284;59.124;37.910;2023-05-27T11:38:59;22.62;29.60
78896;HTU21D;68284;59.124;37.910;2023-05-27T11:41:28;22.68;29.46
78896;HTU21D;68284;59.124;37.910;2023-05-27T11:44:04;22.72;29.17
78896;HTU21D;68284;59.124;37.910;2023-05-27T11:47:00;22.70;28.65
78896;HTU21D;68284;59.124;37.910;2023-05-27T11:49:31;22.71;28.78
78896;HTU21D;68284;59.124;37.910;2023-05-27T11:52:03;22.80;28.66
78896;HTU21D;68284;59.124;37.910;2023-05-27T11:54:30;23.14;28.50
78896;HTU21D;68284;59.124;37.910;2023-05-27T11:56:58;23.24;28.38
78896;HTU21D;68284;59.124;37.910;2023-05-27T11:59:40;23.13;28.78
78896;HTU21D;68284;59.124;37.910;2023-05-27T12:02:22;22.99;28.85
78896;HTU21D;68284;59.124;37.910;2023-05-27T12:04:56;22.85;28.97
78896;HTU21D;68284;59.124;37.910;2023-05-27T12:07:32;22.78;28.91
78896;HTU21D;68284;59.124;37.910;2023-05-27T12:10:01;22.70;28.94
78896;HTU21D;68284;59.124;37.910;2023-05-27T12:12:29;22.61;29.16
78896;HTU21D;68284;59.124;37.910;2023-05-27T12:15:03;22.52;29.24
78896;HTU21D;68284;59.124;37.910;2023-05-27T12:17:30;22.46;29.28
78896;HTU21D;68284;59.124;37.910;2023-05-27T12:19:57;22.44;29.29
78896;HTU21D;68284;59.124;37.910;2023-05-27T12:22:23;22.44;29.07
78896;HTU21D;68284;59.124;37.910;2023-05-27T12:24:53;22.42;29.19
78896;HTU21D;68284;59.124;37.910;2023-05-27T12:27:22;22.48;29.12
78896;HTU21D;68284;59.124;37.910;2023-05-27T12:29:48;22.51;29.15
78896;HTU21D;68284;59.124;37.910;2023-05-27T12:32:15;22.61;29.26
78896;HTU21D;68284;59.124;37.910;2023-05-27T12:34:42;22.65;29.33
78896;HTU21D;68284;59.124;37.910;2023-05-27T12:37:08;22.68;29.28
78896;HTU21D;68284;59.124;37.910;2023-05-27T12:39:35;22.65;29.36
78896;HTU21D;68284;59.124;37.910;2023-05-27T12:42:02;22.65;29.32
78896;HTU21D;68284;59.124;37.910;2023-05-27T12:44:28;22.78;29.32
78896;HTU21D;68284;59.124;37.910;2023-05-27T12:46:56;23.05;29.07
78896;HTU21D;68284;59.124;37.910;2023-05-27T12:49:24;23.51;28.68
78896;HTU21D;68284;59.124;37.910;2023-05-27T12:51:52;24.27;27.92
78896;HTU21D;68284;59.124;37.910;2023-05-27T12:54:19;25.37;26.86
78896;HTU21D;68284;59.124;37.910;2023-05-27T12:56:52;26.16;25.44
78896;HTU21D;68284;59.124;37.910;2023-05-27T12:59:19;26.23;25.05
78896;HTU21D;68284;59.124;37.910;2023-05-27T13:01:47;26.05;25.00
78896;HTU21D;68284;59.124;37.910;2023-05-27T13:04:13;25.97;25.05
78896;HTU21D;68284;59.124;37.910;2023-05-27T13:06:40;26.31;24.62
78896;HTU21D;68284;59.124;37.910;2023-05-27T13:09:07;26.36;24.23
78896;HTU21D;68284;59.124;37.910;2023-05-27T13:11:34;26.10;24.28
78896;HTU21D;68284;59.124;37.910;2023-05-27T13:14:00;25.72;24.83
78896;HTU21D;68284;59.124;37.910;2023-05-27T13:16:27;25.29;24.85
78896;HTU21D;68284;59.124;37.910;2023-05-27T13:18:54;24.87;25.10
78896;HTU21D;68284;59.124;37.910;2023-05-27T13:21:20;24.46;25.42
78896;HTU21D;68284;59.124;37.910;2023-05-27T13:23:46;24.16;25.68
78896;HTU21D;68284;59.124;37.910;2023-05-27T13:26:13;23.95;25.79
78896;HTU21D;68284;59.124;37.910;2023-05-27T13:28:40;23.77;26.04
78896;HTU21D;68284;59.124;37.910;2023-05-27T13:31:07;23.61;26.23
78896;HTU21D;68284;59.124;37.910;2023-05-27T13:33:35;23.56;26.59
78896;HTU21D;68284;59.124;37.910;2023-05-27T13:36:02;23.51;26.93
78896;HTU21D;68284;59.124;37.910;2023-05-27T13:38:29;23.39;27.17
78896;HTU21D;68284;59.124;37.910;2023-05-27T13:40:55;23.18;27.45
78896;HTU21D;68284;59.124;37.910;2023-05-27T13:43:21;22.98;27.64
78896;HTU21D;68284;59.124;37.910;2023-05-27T13:45:50;22.79;27.87
78896;HTU21D;68284;59.124;37.910;2023-05-27T13:48:17;22.54;28.26
78896;HTU21D;68284;59.124;37.910;2023-05-27T13:50:43;22.34;28.73
78896;HTU21D;68284;59.124;37.910;2023-05-27T13:53:09;22.18;28.90
78896;HTU21D;68284;59.124;37.910;2023-05-27T13:55:36;22.05;29.01
78896;HTU21D;68284;59.124;37.910;2023-05-27T13:58:02;21.99;29.18
78896;HTU21D;68284;59.124;37.910;2023-05-27T14:00:29;22.02;29.15
78896;HTU21D;68284;59.124;37.910;2023-05-27T14:02:57;22.01;29.34
78896;HTU21D;68284;59.124;37.910;2023-05-27T14:05:25;21.95;29.48
78896;HTU21D;68284;59.124;37.910;2023-05-27T14:07:52;21.89;30.03
78896;HTU21D;68284;59.124;37.910;2023-05-27T14:10:19;21.77;30.41
78896;HTU21D;68284;59.124;37.910;2023-05-27T14:12:46;21.66;30.71
78896;HTU21D;68284;59.124;37.910;2023-05-27T14:15:15;21.65;30.80
78896;HTU21D;68284;59.124;37.910;2023-05-27T14:17:43;21.70;30.91
78896;HTU21D;68284;59.124;37.910;2023-05-27T14:20:09;21.72;31.05
78896;HTU21D;68284;59.124;37.910;2023-05-27T14:22:36;21.67;31.16
78896;HTU21D;68284;59.124;37.910;2023-05-27T14:25:04;21.62;31.47
78896;HTU21D;68284;59.124;37.910;2023-05-27T14:27:31;21.49;31.93
78896;HTU21D;68284;59.124;37.910;2023-05-27T14:29:57;21.39;32.36
78896;HTU21D;68284;59.124;37.910;2023-05-27T14:32:23;21.27;32.25
78896;HTU21D;68284;59.124;37.910;2023-05-27T14:34:50;21.15;32.19
78896;HTU21D;68284;59.124;37.910;2023-05-27T14:37:17;20.99;32.25
78896;HTU21D;68284;59.124;37.910;2023-05-27T14:39:44;20.88;32.41
78896;HTU21D;68284;59.124;37.910;2023-05-27T14:42:10;20.74;32.65
78896;HTU21D;68284;59.124;37.910;2023-05-27T14:44:38;20.60;32.95
78896;HTU21D;68284;59.124;37.910;2023-05-27T14:47:04;20.47;32.90
78896;HTU21D;68284;59.124;37.910;2023-05-27T14:49:33;20.33;33.01
78896;HTU21D;68284;59.124;37.910;2023-05-27T14:51:59;20.22;33.12
78896;HTU21D;68284;59.124;37.910;2023-05-27T14:54:25;20.13;33.33
78896;HTU21D;68284;59.124;37.910;2023-05-27T14:56:52;20.05;33.36
78896;HTU21D;68284;59.124;37.910;2023-05-27T14:59:18;20.00;33.38
78896;HTU21D;68284;59.124;37.910;2023-05-27T15:01:48;19.94;33.73
78896;HTU21D;68284;59.124;37.910;2023-05-27T15:04:14;19.87;33.78
78896;HTU21D;68284;59.124;37.910;2023-05-27T15:06:41;19.79;33.82
78896;HTU21D;68284;59.124;37.910;2023-05-27T15:09:07;19.72;33.83
78896;HTU21D;68284;59.124;37.910;2023-05-27T15:11:36;19.69;33.85
78896;HTU21D;68284;59.124;37.910;2023-05-27T15:14:02;19.66;33.92
78896;HTU21D;68284;59.124;37.910;2023-05-27T15:16:29;19.61;33.99
78896;HTU21D;68284;59.124;37.910;2023-05-27T15:18:56;19.63;33.99
78896;HTU21D;68284;59.124;37.910;2023-05-27T15:21:25;19.65;35.25
78896;HTU21D;68284;59.124;37.910;2023-05-27T15:23:51;19.56;36.45
78896;HTU21D;68284;59.124;37.910;2023-05-27T15:26:18;19.44;37.59